createdAt,value
2022-12-31T00:00:34.608Z,44.92
2022-12-31T00:03:37.372Z,37.50
2022-12-31T00:06:39.490Z,43.80
2022-12-31T00:09:41.449Z,45.27
2022-12-31T00:12:43.909Z,40.63
2022-12-31T00:15:46.466Z,45.50
2022-12-31T00:18:50.523Z,36.53
2022-12-31T00:21:52.525Z,35.20
2022-12-31T00:24:54.992Z,41.40
2022-12-31T00:27:57.344Z,34.65
2022-12-31T00:31:04.405Z,34.03
2022-12-31T00:34:07.000Z,36.67
2022-12-31T00:37:09.564Z,39.80
2022-12-31T00:40:11.539Z,33.43
2022-12-31T00:43:13.493Z,33.83
2022-12-31T00:46:15.863Z,39.90
2022-12-31T00:49:18.018Z,39.07
2022-12-31T00:52:19.961Z,43.58
2022-12-31T00:55:21.942Z,42.08
2022-12-31T00:58:24.293Z,49.33
2022-12-31T01:01:26.428Z,51.40
2022-12-31T01:04:28.885Z,50.53
2022-12-31T01:07:30.858Z,48.55
2022-12-31T01:10:51.992Z,44.93
2022-12-31T01:13:54.160Z,45.88
2022-12-31T01:16:56.175Z,47.63
2022-12-31T01:19:58.186Z,47.17
2022-12-31T01:23:00.532Z,40.53
2022-12-31T01:26:06.628Z,42.03
2022-12-31T01:29:08.946Z,51.60
2022-12-31T01:32:11.353Z,54.67
2022-12-31T01:35:13.460Z,53.50
2022-12-31T01:38:15.456Z,54.35
2022-12-31T01:41:21.459Z,54.77
2022-12-31T01:44:23.403Z,59.90
2022-12-31T01:47:30.873Z,58.45
2022-12-31T01:50:33.160Z,65.27
2022-12-31T01:53:39.295Z,62.20
2022-12-31T01:56:42.746Z,56.65
2022-12-31T01:59:45.280Z,64.25
2022-12-31T02:02:47.407Z,52.70
2022-12-31T02:05:51.791Z,53.70
2022-12-31T02:08:54.139Z,62.08
2022-12-31T02:11:56.101Z,59.37
2022-12-31T02:14:58.091Z,58.08
2022-12-31T02:18:16.000Z,64.97
2022-12-31T02:21:36.937Z,61.90
2022-12-31T02:24:44.020Z,61.20
2022-12-31T02:28:04.773Z,57.75
2022-12-31T02:31:16.870Z,57.28
2022-12-31T02:34:21.947Z,51.58
2022-12-31T02:37:23.939Z,52.83
2022-12-31T02:40:25.974Z,58.55
2022-12-31T02:43:27.992Z,47.80
2022-12-31T02:46:33.387Z,58.85
2022-12-31T02:49:41.156Z,45.30
2022-12-31T02:53:01.066Z,46.73
2022-12-31T02:56:02.996Z,53.05
2022-12-31T02:59:28.565Z,48.63
2022-12-31T03:02:30.693Z,50.75
2022-12-31T03:05:33.793Z,45.22
2022-12-31T03:08:56.258Z,53.70
2022-12-31T03:12:16.981Z,58.20
2022-12-31T03:15:20.634Z,45.87
2022-12-31T03:18:43.856Z,51.58
2022-12-31T03:22:04.938Z,53.15
2022-12-31T03:25:29.894Z,48.60
2022-12-31T03:28:32.229Z,51.08
2022-12-31T03:31:34.197Z,44.67
2022-12-31T03:34:36.163Z,51.67
2022-12-31T03:37:39.665Z,54.75
2022-12-31T03:40:46.216Z,54.22
2022-12-31T03:43:48.928Z,48.20
2022-12-31T03:46:50.933Z,50.80
2022-12-31T03:49:52.901Z,46.67
2022-12-31T03:52:55.285Z,50.22
2022-12-31T03:55:57.449Z,45.93
2022-12-31T03:58:59.479Z,46.47
2022-12-31T04:02:01.746Z,46.80
2022-12-31T04:05:03.813Z,45.72
2022-12-31T04:08:05.762Z,55.05
2022-12-31T04:11:07.710Z,50.38
2022-12-31T04:14:09.664Z,55.88
2022-12-31T04:17:12.070Z,54.93
2022-12-31T04:20:14.257Z,56.53
2022-12-31T04:23:16.214Z,60.85
2022-12-31T04:26:18.213Z,58.83
2022-12-31T04:29:20.198Z,64.70
2022-12-31T04:32:22.206Z,62.95
2022-12-31T04:35:24.164Z,59.25
2022-12-31T04:38:26.296Z,54.75
2022-12-31T04:41:28.247Z,67.00
2022-12-31T04:44:31.731Z,55.05
2022-12-31T04:47:34.086Z,56.80
2022-12-31T04:50:36.192Z,58.08
2022-12-31T04:53:38.195Z,52.42
2022-12-31T04:56:40.304Z,78.67
2022-12-31T04:59:42.281Z,76.07
2022-12-31T05:02:44.379Z,82.60
2022-12-31T05:05:46.510Z,81.35
2022-12-31T05:08:48.554Z,75.40
2022-12-31T05:11:50.582Z,69.10
2022-12-31T05:14:52.516Z,65.25
2022-12-31T05:17:54.981Z,55.67
2022-12-31T05:20:57.366Z,56.38
2022-12-31T05:23:59.388Z,62.83
2022-12-31T05:27:01.597Z,56.77
2022-12-31T05:30:06.748Z,61.83
2022-12-31T05:33:09.141Z,58.72
2022-12-31T05:36:11.102Z,67.75
2022-12-31T05:39:13.555Z,59.08
2022-12-31T05:42:15.871Z,59.33
2022-12-31T05:45:18.659Z,58.85
2022-12-31T05:48:20.709Z,50.80
2022-12-31T05:51:23.046Z,46.10
2022-12-31T05:54:26.365Z,54.08
2022-12-31T05:57:29.032Z,53.03
2022-12-31T06:00:31.347Z,58.75
2022-12-31T06:03:33.504Z,55.30
2022-12-31T06:06:35.543Z,55.15
2022-12-31T06:09:38.003Z,54.88
2022-12-31T06:12:40.019Z,57.97
2022-12-31T06:15:42.117Z,61.17
2022-12-31T06:18:44.241Z,57.47
2022-12-31T06:21:46.562Z,64.45
2022-12-31T06:24:48.590Z,79.50
2022-12-31T06:27:50.541Z,75.30
2022-12-31T06:30:52.994Z,66.28
2022-12-31T06:33:55.322Z,70.65
2022-12-31T06:36:57.822Z,62.47
2022-12-31T06:39:59.805Z,80.38
2022-12-31T06:43:02.021Z,66.45
2022-12-31T06:46:04.507Z,50.17
2022-12-31T06:49:07.053Z,52.17
2022-12-31T06:52:09.129Z,41.42
2022-12-31T06:55:11.693Z,47.58
2022-12-31T06:58:14.631Z,47.17
2022-12-31T07:01:28.679Z,49.25
2022-12-31T07:04:42.983Z,43.58
2022-12-31T07:07:45.298Z,41.28
2022-12-31T07:10:55.958Z,43.65
2022-12-31T07:14:10.333Z,42.35
2022-12-31T07:17:24.942Z,43.50
2022-12-31T07:20:31.079Z,41.13
2022-12-31T07:23:33.727Z,38.67
2022-12-31T07:26:56.986Z,45.88
2022-12-31T07:30:03.611Z,40.27
2022-12-31T07:33:05.647Z,34.63
2022-12-31T07:36:10.812Z,43.40
2022-12-31T07:39:13.703Z,39.70
2022-12-31T07:42:17.250Z,51.55
2022-12-31T07:45:31.595Z,55.95
2022-12-31T07:48:34.071Z,50.47
2022-12-31T07:51:36.308Z,42.73
2022-12-31T07:54:38.282Z,44.75
2022-12-31T07:57:55.869Z,43.78
2022-12-31T08:00:58.107Z,44.00
2022-12-31T08:04:02.752Z,38.85
2022-12-31T08:07:11.615Z,38.15
2022-12-31T08:10:19.384Z,42.97
2022-12-31T08:13:21.439Z,42.88
2022-12-31T08:16:24.239Z,47.70
2022-12-31T08:19:36.002Z,53.20
2022-12-31T08:22:56.472Z,39.00
2022-12-31T08:26:16.943Z,38.15
2022-12-31T08:29:33.885Z,39.40
2022-12-31T08:32:54.573Z,45.13
2022-12-31T08:35:59.389Z,40.08
2022-12-31T08:39:07.751Z,36.13
2022-12-31T08:42:14.607Z,34.33
2022-12-31T08:45:25.780Z,37.10
2022-12-31T08:48:30.691Z,50.45
2022-12-31T08:51:33.120Z,57.90
2022-12-31T08:54:35.409Z,91.73
2022-12-31T08:57:56.104Z,45.80
2022-12-31T09:00:59.063Z,39.10
2022-12-31T09:04:20.214Z,44.13
2022-12-31T09:07:23.868Z,37.58
2022-12-31T09:10:32.813Z,35.70
2022-12-31T09:13:50.872Z,38.35
2022-12-31T09:17:01.852Z,33.33
2022-12-31T09:20:04.458Z,35.80
2022-12-31T09:23:06.739Z,39.65
2022-12-31T09:26:13.868Z,258.57
2022-12-31T09:29:23.298Z,43.83
2022-12-31T09:32:44.173Z,152.38
2022-12-31T09:35:55.612Z,38.65
2022-12-31T09:39:03.401Z,39.38
2022-12-31T09:42:25.443Z,30.55
2022-12-31T09:45:27.839Z,36.72
2022-12-31T09:48:32.965Z,40.60
2022-12-31T09:51:38.996Z,39.42
2022-12-31T09:54:47.141Z,43.65
2022-12-31T09:57:55.671Z,35.65
2022-12-31T10:00:57.746Z,43.10
2022-12-31T10:04:04.178Z,39.70
2022-12-31T10:07:12.613Z,36.65
2022-12-31T10:10:24.679Z,38.47
2022-12-31T10:13:33.518Z,34.63
2022-12-31T10:16:43.046Z,40.45
2022-12-31T10:19:51.142Z,36.55
2022-12-31T10:22:56.846Z,35.13
2022-12-31T10:26:02.042Z,33.27
2022-12-31T10:29:23.680Z,56.97
2022-12-31T10:32:32.418Z,38.88
2022-12-31T10:35:44.011Z,39.15
2022-12-31T10:38:53.297Z,32.40
2022-12-31T10:42:05.728Z,36.58
2022-12-31T10:45:22.978Z,41.35
2022-12-31T10:48:25.021Z,34.22
2022-12-31T10:51:30.069Z,37.33
2022-12-31T10:54:41.537Z,58.63
2022-12-31T10:57:43.670Z,40.15
2022-12-31T11:00:46.015Z,38.58
2022-12-31T11:04:06.891Z,89.90
2022-12-31T11:07:35.488Z,78.75
2022-12-31T11:10:37.675Z,44.83
2022-12-31T11:13:42.582Z,35.00
2022-12-31T11:16:44.979Z,39.53
2022-12-31T11:20:05.643Z,51.80
2022-12-31T11:23:26.143Z,41.42
2022-12-31T11:26:47.884Z,37.80
2022-12-31T11:30:05.132Z,37.17
2022-12-31T11:33:15.904Z,39.38
2022-12-31T11:36:36.787Z,37.20
2022-12-31T11:39:41.859Z,36.95
2022-12-31T11:42:50.941Z,39.07
2022-12-31T11:45:53.907Z,40.35
2022-12-31T11:49:05.110Z,41.50
2022-12-31T11:52:17.037Z,37.47
2022-12-31T11:55:34.066Z,42.42
2022-12-31T11:58:36.398Z,51.75
2022-12-31T12:01:51.745Z,45.58
2022-12-31T12:04:53.855Z,48.27
2022-12-31T12:07:56.522Z,40.67
2022-12-31T12:11:03.809Z,45.33
2022-12-31T12:14:24.435Z,37.28
2022-12-31T12:17:32.549Z,40.37
2022-12-31T12:20:38.437Z,36.85
2022-12-31T12:23:40.492Z,37.03
2022-12-31T12:26:43.296Z,91.90
2022-12-31T12:29:47.411Z,59.10
2022-12-31T12:32:53.046Z,40.55
2022-12-31T12:36:05.597Z,38.08
2022-12-31T12:39:08.294Z,39.37
2022-12-31T12:42:13.890Z,37.83
2022-12-31T12:45:16.979Z,39.85
2022-12-31T12:48:44.835Z,40.83
2022-12-31T12:51:47.505Z,39.45
2022-12-31T12:55:08.601Z,41.53
2022-12-31T12:58:19.164Z,44.88
2022-12-31T13:01:21.609Z,51.13
2022-12-31T13:04:35.565Z,93.43
2022-12-31T13:07:44.039Z,81.10
2022-12-31T13:10:49.489Z,58.80
2022-12-31T13:14:15.004Z,50.58
2022-12-31T13:17:35.796Z,47.22
2022-12-31T13:20:40.966Z,45.67
2022-12-31T13:23:46.754Z,39.10
2022-12-31T13:26:54.894Z,40.80
2022-12-31T13:29:59.345Z,43.60
2022-12-31T13:33:02.029Z,41.60
2022-12-31T13:36:05.602Z,41.93
2022-12-31T13:39:12.772Z,38.83
2022-12-31T13:42:17.053Z,37.83
2022-12-31T13:45:22.622Z,34.92
2022-12-31T13:48:28.083Z,42.55
2022-12-31T13:51:32.866Z,37.90
2022-12-31T13:54:39.193Z,39.53
2022-12-31T13:57:45.992Z,41.22
2022-12-31T14:00:53.302Z,37.47
2022-12-31T14:04:13.968Z,40.20
2022-12-31T14:07:23.047Z,43.10
2022-12-31T14:10:48.611Z,57.63
2022-12-31T14:13:55.689Z,42.72
2022-12-31T14:16:59.937Z,38.75
2022-12-31T14:20:14.313Z,36.40
2022-12-31T14:23:22.323Z,37.33
2022-12-31T14:26:27.519Z,40.65
2022-12-31T14:29:34.261Z,51.10
2022-12-31T14:32:49.827Z,51.90
2022-12-31T14:36:10.117Z,48.77
2022-12-31T14:39:19.846Z,38.63
2022-12-31T14:42:21.778Z,36.75
2022-12-31T14:45:32.692Z,37.90
2022-12-31T14:48:39.331Z,35.42
2022-12-31T14:51:41.725Z,42.40
2022-12-31T14:54:44.135Z,39.90
2022-12-31T15:01:18.999Z,39.38
2022-12-31T15:04:49.305Z,44.25
2022-12-31T15:07:54.188Z,55.40
2022-12-31T15:11:15.525Z,60.03
2022-12-31T15:14:17.875Z,44.35
2022-12-31T15:17:23.258Z,50.22
2022-12-31T15:20:25.629Z,50.67
2022-12-31T15:23:46.263Z,49.00
2022-12-31T15:26:49.451Z,48.57
2022-12-31T15:29:51.579Z,54.00
2022-12-31T15:32:54.216Z,51.13
2022-12-31T15:35:56.624Z,49.72
2022-12-31T15:39:10.896Z,48.87
2022-12-31T15:42:37.745Z,47.85
2022-12-31T15:45:41.029Z,50.70
2022-12-31T15:49:02.039Z,46.22
2022-12-31T15:52:06.912Z,47.10
2022-12-31T15:55:08.971Z,53.38
2022-12-31T15:58:12.522Z,51.78
2022-12-31T16:01:24.190Z,73.30
2022-12-31T16:04:27.129Z,68.30
2022-12-31T16:07:29.156Z,74.32
2022-12-31T16:10:31.806Z,66.38
2022-12-31T16:13:35.232Z,70.50
2022-12-31T16:16:37.323Z,74.70
2022-12-31T16:19:43.499Z,73.90
2022-12-31T16:22:49.829Z,72.38
2022-12-31T16:25:52.596Z,75.57
2022-12-31T16:28:55.993Z,62.53
2022-12-31T16:31:58.219Z,63.63
2022-12-31T16:35:00.180Z,66.72
2022-12-31T16:38:03.706Z,67.33
2022-12-31T16:41:07.234Z,77.00
2022-12-31T16:44:12.638Z,63.60
2022-12-31T16:47:24.660Z,64.60
2022-12-31T16:50:26.676Z,80.97
2022-12-31T16:53:29.888Z,84.28
2022-12-31T16:56:34.204Z,69.75
2022-12-31T16:59:38.988Z,70.88
2022-12-31T17:02:43.378Z,70.37
2022-12-31T17:05:55.713Z,69.40
2022-12-31T17:08:59.573Z,65.40
2022-12-31T17:12:09.624Z,65.50
2022-12-31T17:15:17.583Z,67.97
2022-12-31T17:18:23.510Z,66.15
2022-12-31T17:21:26.441Z,73.32
2022-12-31T17:24:28.792Z,79.38
2022-12-31T17:27:30.869Z,87.90
2022-12-31T17:30:32.878Z,91.55
2022-12-31T17:33:35.278Z,102.07
2022-12-31T17:36:37.231Z,114.07
2022-12-31T17:39:41.745Z,95.38
2022-12-31T17:42:44.284Z,90.75
2022-12-31T17:45:46.577Z,89.60
2022-12-31T17:48:53.258Z,91.43
2022-12-31T17:51:55.243Z,93.70
2022-12-31T17:54:57.236Z,102.88
2022-12-31T17:57:59.575Z,97.72
2022-12-31T18:01:02.344Z,91.20
2022-12-31T18:04:06.108Z,94.53
2022-12-31T18:07:08.092Z,100.43
2022-12-31T18:10:10.506Z,95.47
2022-12-31T18:13:17.558Z,98.65
2022-12-31T18:16:19.688Z,95.10
2022-12-31T18:19:54.151Z,95.13
2022-12-31T18:22:44.647Z,101.33
2022-12-31T18:25:46.644Z,100.32
2022-12-31T18:28:48.831Z,93.85
2022-12-31T18:31:51.782Z,95.60
2022-12-31T18:34:53.841Z,94.20
2022-12-31T18:37:56.146Z,88.83
2022-12-31T18:40:58.837Z,91.75
2022-12-31T18:44:01.009Z,93.30
2022-12-31T18:47:02.949Z,89.50
2022-12-31T18:50:05.865Z,91.83
2022-12-31T18:53:08.443Z,98.70
2022-12-31T18:56:11.203Z,91.45
2022-12-31T18:59:13.725Z,109.70
2022-12-31T19:02:20.574Z,96.63
2022-12-31T19:05:26.555Z,94.13
2022-12-31T19:08:28.621Z,90.90
2022-12-31T19:11:32.977Z,95.40
2022-12-31T19:14:35.435Z,93.90
2022-12-31T19:17:37.400Z,104.25
2022-12-31T19:20:39.804Z,100.90
2022-12-31T19:23:41.826Z,90.72
2022-12-31T19:26:50.715Z,92.07
2022-12-31T19:29:52.641Z,91.10
2022-12-31T19:32:54.726Z,98.63
2022-12-31T19:35:56.744Z,91.35
2022-12-31T19:38:59.085Z,96.47
2022-12-31T19:42:01.223Z,92.72
2022-12-31T19:45:03.744Z,96.05
2022-12-31T19:48:05.789Z,91.30
2022-12-31T19:51:08.453Z,92.47
2022-12-31T19:54:12.273Z,87.18
2022-12-31T19:57:14.209Z,88.50
2022-12-31T20:00:17.088Z,98.00
2022-12-31T20:03:19.666Z,107.37
2022-12-31T20:06:22.134Z,98.47
2022-12-31T20:09:24.135Z,101.75
2022-12-31T20:12:26.484Z,95.13
2022-12-31T20:15:28.793Z,101.20
2022-12-31T20:18:31.185Z,103.30
2022-12-31T20:21:33.652Z,98.75
2022-12-31T20:24:35.682Z,96.75
2022-12-31T20:27:38.539Z,90.37
2022-12-31T20:30:41.054Z,86.65
2022-12-31T20:33:43.476Z,87.40
2022-12-31T20:36:45.461Z,89.38
2022-12-31T20:39:47.432Z,91.93
2022-12-31T20:42:49.444Z,99.00
2022-12-31T20:45:51.351Z,117.47
2022-12-31T20:48:54.597Z,112.97
2022-12-31T20:51:56.597Z,99.83
2022-12-31T20:54:58.627Z,96.10
2022-12-31T20:58:00.965Z,102.03
2022-12-31T21:01:05.511Z,99.28
2022-12-31T21:04:08.311Z,92.63
2022-12-31T21:07:10.406Z,86.72
2022-12-31T21:10:12.509Z,94.85
2022-12-31T21:13:14.513Z,100.53
2022-12-31T21:16:17.010Z,92.37
2022-12-31T21:19:19.080Z,104.70
2022-12-31T21:22:21.158Z,100.80
2022-12-31T21:25:23.177Z,87.07
2022-12-31T21:28:26.053Z,82.30
2022-12-31T21:31:28.504Z,76.03
2022-12-31T21:34:30.660Z,74.10
2022-12-31T21:37:59.302Z,74.00
2022-12-31T21:40:55.444Z,71.47
2022-12-31T21:43:57.892Z,70.63
2022-12-31T21:47:39.703Z,73.20
2022-12-31T21:50:42.567Z,70.23
2022-12-31T21:53:52.021Z,65.70
2022-12-31T21:57:01.534Z,74.40
2022-12-31T22:00:41.726Z,76.35
2022-12-31T22:03:44.494Z,76.05
2022-12-31T22:06:46.654Z,80.75
2022-12-31T22:09:48.693Z,69.18
2022-12-31T22:12:51.142Z,77.13
2022-12-31T22:15:56.258Z,79.50
2022-12-31T22:19:00.967Z,80.72
2022-12-31T22:22:02.969Z,78.00
2022-12-31T22:25:05.237Z,83.32
2022-12-31T22:31:32.798Z,94.78
2022-12-31T22:34:34.997Z,100.23
2022-12-31T22:37:56.127Z,69.28
2022-12-31T22:41:05.883Z,74.45
2022-12-31T22:44:08.208Z,73.45
2022-12-31T22:47:10.131Z,69.13
2022-12-31T22:50:12.138Z,70.47
2022-12-31T22:53:14.650Z,73.43
2022-12-31T22:56:17.147Z,78.50
2022-12-31T22:59:19.172Z,79.78
2022-12-31T23:02:21.365Z,74.43
2022-12-31T23:05:23.433Z,76.72
2022-12-31T23:08:25.827Z,84.82
2022-12-31T23:11:27.908Z,71.75
2022-12-31T23:14:48.536Z,72.57
2022-12-31T23:18:09.824Z,74.13
2022-12-31T23:21:30.341Z,77.05
2022-12-31T23:24:32.303Z,82.60
2022-12-31T23:27:34.705Z,84.30
2022-12-31T23:30:37.936Z,92.32
2022-12-31T23:33:40.780Z,132.50
2022-12-31T23:36:42.792Z,132.73
2022-12-31T23:39:45.246Z,119.25
2022-12-31T23:42:47.276Z,123.03
2022-12-31T23:45:49.952Z,145.50
2022-12-31T23:48:53.775Z,162.57
2022-12-31T23:51:56.084Z,142.73
2022-12-31T23:54:58.065Z,132.13
2022-12-31T23:58:00.009Z,118.50
